createdAt,value
2022-10-23T05:43:48.897Z,97878.13
2022-10-23T05:47:04.610Z,97894.44
2022-10-23T05:49:50.915Z,97893.22
2022-10-23T05:52:34.040Z,97900.22
2022-10-23T05:55:25.865Z,97901.00
2022-10-23T05:58:17.941Z,97917.75
2022-10-23T06:01:08.126Z,97925.94
2022-10-23T06:03:56.348Z,97934.56
2022-10-23T06:06:31.401Z,97948.69
2022-10-23T06:08:59.441Z,97951.69
2022-10-23T06:11:27.551Z,97959.34
2022-10-23T06:14:03.381Z,97981.19
2022-10-23T06:16:31.414Z,97983.94
2022-10-23T06:19:00.284Z,98001.56
2022-10-23T06:21:28.128Z,98008.13
2022-10-23T06:23:56.699Z,98010.63
2022-10-23T06:26:53.835Z,98012.19
2022-10-23T06:29:27.245Z,98016.91
2022-10-23T06:31:54.968Z,98019.34
2022-10-23T06:34:23.645Z,98023.41
2022-10-23T06:37:09.948Z,98044.66
2022-10-23T06:39:46.376Z,98060.09
2022-10-23T06:42:35.565Z,98058.06
2022-10-23T06:45:34.099Z,98058.72
2022-10-23T06:48:25.006Z,98054.81
2022-10-23T06:51:03.844Z,98058.59
2022-10-23T06:53:38.098Z,98057.34
2022-10-23T06:56:13.034Z,98045.31
2022-10-23T06:58:40.905Z,98026.75
2022-10-23T07:01:14.590Z,98029.41
2022-10-23T07:04:02.675Z,98030.88
2022-10-23T07:06:31.231Z,98029.84
2022-10-23T07:08:59.912Z,98042.75
2022-10-23T07:11:46.412Z,98059.56
2022-10-23T07:14:14.519Z,98079.03
2022-10-23T07:17:00.922Z,98070.94
2022-10-23T07:19:29.681Z,98066.19
2022-10-23T07:21:58.928Z,98051.69
2022-10-23T07:24:48.465Z,98052.44
2022-10-23T07:27:29.251Z,98046.53
2022-10-23T07:30:00.378Z,98047.94
2022-10-23T07:32:31.975Z,98040.06
2022-10-23T07:35:18.711Z,98037.09
2022-10-23T07:38:13.978Z,98040.88
2022-10-23T07:40:45.708Z,98036.56
2022-10-23T07:43:18.577Z,98044.28
2022-10-23T07:48:38.939Z,98054.41
2022-10-23T07:51:25.311Z,98040.16
2022-10-23T07:54:18.623Z,98044.63
2022-10-23T07:57:30.552Z,98038.06
2022-10-23T08:00:32.419Z,98049.38
2022-10-23T08:03:12.875Z,98033.28
2022-10-23T08:06:00.174Z,98035.72
2022-10-23T08:08:47.335Z,98040.66
2022-10-23T08:11:15.538Z,98040.84
2022-10-23T08:14:09.187Z,98040.47
2022-10-23T08:16:37.971Z,98038.91
2022-10-23T08:19:06.505Z,98034.09
2022-10-23T08:21:36.316Z,98034.88
2022-10-23T08:24:05.037Z,98035.69
2022-10-23T08:26:32.715Z,98028.69
2022-10-23T08:29:00.422Z,98028.00
2022-10-23T08:31:28.856Z,98036.19
2022-10-23T08:34:18.727Z,98022.03
2022-10-23T08:37:07.843Z,98021.84
2022-10-23T08:39:56.173Z,98018.88
2022-10-23T08:43:03.588Z,98023.53
2022-10-23T08:45:45.075Z,98027.59
2022-10-23T08:48:35.687Z,98020.63
2022-10-23T08:51:44.565Z,98028.56
2022-10-23T08:54:45.076Z,98031.13
2022-10-23T08:57:40.072Z,98023.28
2022-10-23T09:00:15.406Z,98021.97
2022-10-23T09:03:03.241Z,98022.53
2022-10-23T09:05:50.401Z,98017.66
2022-10-23T09:08:36.131Z,98022.69
2022-10-23T09:11:14.665Z,98021.31
2022-10-23T09:14:14.736Z,98024.72
2022-10-23T09:16:51.649Z,98033.03
2022-10-23T09:19:20.848Z,98030.41
2022-10-23T09:21:52.042Z,98027.09
2022-10-23T09:24:21.997Z,98034.31
2022-10-23T09:26:51.182Z,98031.88
2022-10-23T09:29:32.006Z,98033.41
2022-10-23T09:32:00.759Z,98033.28
2022-10-23T09:34:29.792Z,98027.44
2022-10-23T09:36:59.434Z,98023.81
2022-10-23T09:42:25.030Z,98018.31
2022-10-23T09:44:53.851Z,98022.63
2022-10-23T09:47:24.478Z,98027.03
2022-10-23T09:49:54.099Z,98022.91
2022-10-23T09:52:26.146Z,98009.59
2022-10-23T09:55:00.970Z,98014.16
2022-10-23T09:57:31.902Z,98013.31
2022-10-23T10:00:05.172Z,98012.34
2022-10-23T10:02:39.282Z,98014.88
2022-10-23T10:05:32.317Z,98023.00
2022-10-23T10:08:34.841Z,98020.69
2022-10-23T10:11:21.084Z,98017.13
2022-10-23T10:14:23.204Z,98016.44
2022-10-23T10:17:25.855Z,98018.31
2022-10-23T10:20:05.458Z,98014.72
2022-10-23T10:25:40.194Z,98004.78
2022-10-23T10:28:32.433Z,98001.69
2022-10-23T10:31:12.842Z,98002.56
2022-10-23T10:34:16.404Z,98001.41
2022-10-23T10:36:55.039Z,97998.81
2022-10-23T10:39:28.877Z,97999.22
2022-10-23T10:42:32.171Z,97997.03
2022-10-23T10:45:46.505Z,97995.16
2022-10-23T10:48:51.790Z,98000.41
2022-10-23T10:51:54.702Z,97990.69
2022-10-23T10:54:35.991Z,97992.91
2022-10-23T10:57:05.716Z,97989.16
2022-10-23T10:59:52.011Z,97975.88
2022-10-23T11:02:41.687Z,97972.31
2022-10-23T11:05:19.133Z,97967.78
2022-10-23T11:08:00.071Z,97964.66
2022-10-23T11:10:27.775Z,97959.88
2022-10-23T11:12:55.472Z,97962.59
2022-10-23T11:15:27.164Z,97957.81
2022-10-23T11:18:02.983Z,97950.72
2022-10-23T11:20:51.002Z,97954.47
2022-10-23T11:23:54.190Z,97964.22
2022-10-23T11:26:28.538Z,97950.16
2022-10-23T11:29:20.437Z,97949.03
2022-10-23T11:31:57.400Z,97945.88
2022-10-23T11:34:50.997Z,97939.91
2022-10-23T11:37:19.087Z,97941.91
2022-10-23T11:40:02.181Z,97940.66
2022-10-23T11:42:35.003Z,97938.66
2022-10-23T11:45:05.099Z,97933.78
2022-10-23T11:47:40.126Z,97923.16
2022-10-23T11:50:08.177Z,97927.81
2022-10-23T11:53:19.425Z,97918.28
2022-10-23T11:56:12.055Z,97908.09
2022-10-23T11:58:44.594Z,97910.97
2022-10-23T12:01:41.476Z,97909.00
2022-10-23T12:04:15.666Z,97908.50
2022-10-23T12:07:00.264Z,97908.22
2022-10-23T12:09:36.288Z,97904.09
2022-10-23T12:12:10.196Z,97903.22
2022-10-23T12:14:46.146Z,97895.19
2022-10-23T12:17:35.966Z,97888.19
2022-10-23T12:20:03.548Z,97886.66
2022-10-23T12:22:51.972Z,97889.66
2022-10-23T12:25:57.513Z,97884.88
2022-10-23T12:28:39.131Z,97880.88
2022-10-23T12:31:36.209Z,97887.97
2022-10-23T12:34:33.118Z,97878.88
2022-10-23T12:37:06.499Z,97874.44
2022-10-23T12:39:41.900Z,97875.69
2022-10-23T12:42:28.333Z,97871.63
2022-10-23T12:45:02.774Z,97872.47
2022-10-23T12:47:30.637Z,97863.97
2022-10-23T12:49:58.274Z,97871.00
2022-10-23T12:52:26.147Z,97861.94
2022-10-23T12:54:53.794Z,97870.63
2022-10-23T12:57:28.994Z,97868.00
2022-10-23T13:00:02.607Z,97864.44
2022-10-23T13:02:32.039Z,97874.94
2022-10-23T13:05:01.403Z,97869.41
2022-10-23T13:07:34.437Z,97870.59
2022-10-23T13:10:03.692Z,97861.38
2022-10-23T13:12:35.685Z,97868.66
2022-10-23T13:15:06.444Z,97861.53
2022-10-23T13:18:03.538Z,97859.31
2022-10-23T13:20:50.414Z,97860.06
2022-10-23T13:23:19.449Z,97844.50
2022-10-23T13:26:02.444Z,97856.97
2022-10-23T13:28:52.395Z,97855.44
2022-10-23T13:31:38.421Z,97851.03
2022-10-23T13:34:13.189Z,97853.34
2022-10-23T13:36:53.229Z,97853.97
2022-10-23T13:39:28.202Z,97862.34
2022-10-23T13:41:55.924Z,97859.81
2022-10-23T13:44:24.042Z,97855.75
2022-10-23T13:46:52.344Z,97864.13
2022-10-23T13:49:20.180Z,97859.47
2022-10-23T13:51:54.531Z,97856.09
2022-10-23T13:54:24.061Z,97855.44
2022-10-23T13:56:52.190Z,97861.13
2022-10-23T13:59:20.069Z,97853.50
2022-10-23T14:01:48.410Z,97850.09
2022-10-23T14:04:16.897Z,97852.69
2022-10-23T14:06:44.631Z,97846.38
2022-10-23T14:09:31.686Z,97852.03
2022-10-23T14:14:44.386Z,97854.88
2022-10-23T14:17:12.021Z,97850.97
2022-10-23T14:19:39.723Z,97846.78
2022-10-23T14:22:07.306Z,97854.13
2022-10-23T14:24:35.633Z,97846.69
2022-10-23T14:27:03.254Z,97849.50
2022-10-23T14:29:31.076Z,97849.97
2022-10-23T14:31:58.664Z,97850.16
2022-10-23T14:34:26.381Z,97852.72
2022-10-23T14:37:07.496Z,97858.91
2022-10-23T14:39:36.341Z,97859.06
2022-10-23T14:42:04.022Z,97856.84
2022-10-23T14:44:31.747Z,97860.84
2022-10-23T14:47:00.193Z,97856.00
2022-10-23T14:49:27.844Z,97855.22
2022-10-23T14:51:55.423Z,97857.06
2022-10-23T14:54:41.627Z,97864.38
2022-10-23T14:57:28.133Z,97861.50
2022-10-23T15:00:14.746Z,97859.31
2022-10-23T15:02:42.595Z,97855.81
2022-10-23T15:05:10.416Z,97857.22
2022-10-23T15:07:38.193Z,97863.81
2022-10-23T15:10:06.826Z,97865.28
2022-10-23T15:12:37.589Z,97862.63
2022-10-23T15:15:06.081Z,97857.31
2022-10-23T15:17:52.370Z,97861.81
2022-10-23T15:20:20.205Z,97855.31
2022-10-23T15:22:47.787Z,97850.25
2022-10-23T15:25:17.969Z,97856.44
2022-10-23T15:27:46.047Z,97848.94
2022-10-23T15:30:13.957Z,97855.75
2022-10-23T15:32:41.672Z,97856.66
2022-10-23T15:35:09.349Z,97856.50
2022-10-23T15:37:55.506Z,97864.38
2022-10-23T15:40:23.211Z,97858.13
2022-10-23T15:42:50.875Z,97867.00
2022-10-23T15:45:18.485Z,97860.16
2022-10-23T15:47:46.245Z,97862.47
2022-10-23T15:50:14.077Z,97864.75
2022-10-23T15:53:00.465Z,97865.41
2022-10-23T15:55:28.334Z,97862.03
2022-10-23T15:57:57.345Z,97856.81
2022-10-23T16:00:44.026Z,97855.59
2022-10-23T16:03:11.740Z,97845.44
2022-10-23T16:05:39.477Z,97846.44
2022-10-23T16:08:07.208Z,97850.97
2022-10-23T16:10:39.475Z,97849.91
2022-10-23T16:13:07.156Z,97848.09
2022-10-23T16:15:39.359Z,97856.50
2022-10-23T16:18:10.556Z,97861.66
2022-10-23T16:20:40.186Z,97862.13
2022-10-23T16:23:07.746Z,97865.25
2022-10-23T16:25:36.524Z,97862.56
2022-10-23T16:28:04.364Z,97872.16
2022-10-23T16:31:10.376Z,97863.91
2022-10-23T16:34:00.000Z,97870.81
2022-10-23T16:36:28.266Z,97874.16
2022-10-23T16:39:20.396Z,97868.03
2022-10-23T16:42:07.109Z,97874.31
2022-10-23T16:44:53.503Z,97885.88
2022-10-23T16:47:39.952Z,97887.81
2022-10-23T16:50:07.854Z,97890.75
2022-10-23T16:52:35.477Z,97887.06
2022-10-23T16:55:03.232Z,97893.91
2022-10-23T16:57:30.902Z,97893.13
2022-10-23T16:59:58.648Z,97896.03
2022-10-23T17:02:26.695Z,97896.47
2022-10-23T17:04:54.457Z,97898.84
2022-10-23T17:07:24.182Z,97902.94
2022-10-23T17:09:52.186Z,97896.22
2022-10-23T17:12:20.072Z,97896.22
2022-10-23T17:14:47.744Z,97889.19
2022-10-23T17:17:15.504Z,97898.72
